Relevés horaires Bruxelles-National (Belgique)


Relevés horaires à Bruxelles-National - Vendredi 16 Avr. 2021
Heure UTC1 Température [°C] Vent [km/h] Hum. [%] Pres.4 [hPa] Visi. [Km] Nébu. [octa] Préc.5 [mm] Cond.
2m. Res. Ros. Dir.2 Vit. Moy. Raf.3
23:00 3.4 3.4 1.2 N 3.7 3.7 5.6 85 1027.7(0.1/3h) 50 0/8 -- --
22:00 4.5 4.5 0.6 N 1.9 5.6 7.4 76 1027.6(0.6/3h) 50 0/8 -- --
21:00 4.7 3.5 1.2 N 5.6 7.4 11.1 78 1027.6(0.7/3h) 50 0/8 -- --
20:00 5.7 4.7 0.6 N 5.6 7.4 11.1 70 1027.5(0.6/3h) 50 1/8 -- --
19:00 6.3 5.3 0.3 N 5.6 7.4 11.1 65 1027(-0.2/3h) 50 1/8 -- --
18:00 9.0 9.0 -0.6 N 3.7 9.3 14.8 51 1026.7(-0.7/3h) 50 2/8 0/12h
--
17:00 9.7 9.2 -1.6 N 5.6 7.4 11.1 45 1026.8(-1.1/3h) 35 3/8 -- --
16:00 10.4 9.6 -1.1 N 7.4 9.3 13.0 45 1027.1(-1.2/3h) 35 6/8 -- --
15:00 10.4 10 -2.5 NNE 5.6 11.1 14.8 40 1027.4(-1.1/3h) 35 6/8 -- --
14:00 10.5 10.2 -2.9 ENE 5.6 7.4 13.0 39 1027.9(-1.1/3h) 35 6/8 -- --
13:00 9.6 9.6 -1.4 ENE 3.7 11.1 14.8 46 1028.3(-1.3/3h) 35 6/8 -- --
12:00 9.7 8.1 -1.8 NNE 11.1 11.1 14.8 44 1028.5(-1.1/3h) 35 4/8 0/6h
--
11:00 9.0 7.6 -1.4 NE 9.3 9.3 13.0 48 1029.1(-0.8/3h) 35 3/8 -- --
10:00 7.3 6.5 -0.4 NNE 5.6 5.6 9.3 58 1029.7(0.2/3h) 35 2/8 -- --
09:00 5.0 5.0 0.4 N 1.9 3.7 5.6 72 1029.8(0.4/3h) 35 5/8 -- --
08:00 3.0 3.0 -0.3 NE 1.9 3.7 5.6 79 1030.1(0.9/3h) 35 4/8 -- --
07:00 1.6 1.6 -1.1 N 3.7 3.7 5.6 82 1029.7(0.5/3h) 35 3/8 -- --
06:00 0.2 0.2 -2.4 N 1.9 1.9 5.6 83 1029.5(0.3/3h) 35 3/8 0/12h
--
05:00 0.2 0.2 -2.5 N 1.9 1.9 3.7 82 1029.3(-0.1/3h) 35 1/8 -- --
04:00 0.2 0.2 -1.9 NNO 0.0 1.9 1.9 86 1029.2(-0.3/3h) 35 1/8 -- --
03:00 0.6 0.6 -2.0 NE 1.9 1.9 3.7 83 1029.3(-0.7/3h) 35 1/8 -- --
02:00 -0.2 -0.2 -2.4 NNE 1.9 1.9 1.9 85 1029.3(-0.8/3h) 35 1/8 -- --
01:00 2.0 2.0 -1.2 NNE 1.9 1.9 3.7 79 1029.5(-0.5/3h) 35 1/8 -- --
00:00 2.4 2.4 -1.2 NE 1.9 3.7 5.6 77 1029.9(-0.2/3h) 35 1/8 0/6h
0/24h
--

1 Coordinated Universal Time. Actuellement il est 01:00 locale et 23:00 UTC.

2 Le vent souffle depuis la direction indiquée vers la direction oposée.

3 Les rafales max. sont disponible 40 min après l'heure du relevé.

4 Pour les stations d'altitude (plus de 600m) le géopotentiel du niveau le plus proche de la pression obligatoire est indiqué.

5 Les stations disposant d'un diffuseur peuvent indiquer "trace". Cela signifie que des précipitations ont touchés le sol mais que la quantité est inférieure à 0.1 mm.

Récapitulatif de la journée
Température [°C] Vent [km/h] Ensoleillement4 [h] Precipitations totale5 [mm] Pression [Hpa]
Min1 Max.2 Moy.3 Max. Min Max.
-0.5 11.5 5.8 14.8 0 h 0 min 0 1026.7 1030.1

1 Température minimale relevée entre 18:00 UTC la veille et 18:00 UTC le jour donné.

2 Température maximale relevée entre 06:00 UTC le jour donné et 06:00 UTC le lendemain.

3 Vent moyen de la journée basé sur les relevés horaires.

4 Ensoleillement en heures relevé entre 06:00 UTC la veille et 06:00 UTC le jour donné.

5 Précipitations totales tombées entre 06:00 UTC la jour donné et 06:00 UTC le lendemain.

Graphiques horaires